KIOB

Mount Sterling-Montgomery County Airport

Mount Sterling, Kentucky, USA
METAR KIOB 201515Z AUTO 23014G25KT 130V240 10SM CLR 21/13 A3025 RMK AO2
Observed Flight Rules
Feb-20 @ 15:15 UTC (2 hours ago) Visual Flight Rules
Wind Visibility Clouds
230° at 14 knots
 Gusting to 25 knots
10 miles
  • Clear skies
Temperatures Readings
Current 21°C / 70°F
Dewpoint 13°C / 55°F
Humidity 60%
Altimeter 30.25" Hg
Pressure 1024 hPa
Elevation 311
METAR KIOB 201515Z AUTO 23014G25KT 130V240 10SM CLR 21/13 A3025 RMK AO2
Observed Flight Rules
Feb-20 @ 15:15 UTC
(2 hours ago)
VFR
Wind Visibility
230° at 14 knots
 Gusting to 25 knots
10 miles
Clouds
  • Clear skies
Temperature Dewpoint
21°C / 70°F 13°C / 55°F
Humidity Altimeter Pressure
60% 30.25" Hg 1024 hPa